Data for 08/19/2017

Time Sea-Level Adjusted Pressure Absolute Pressure Temperature Relative Humidity Dew Point   
(mb) (inHg) (mb) (inHg) (C) (F) (%) (C) (F)
00:05 1019 30.09 848 25.04 18.1 64.5 27 -1 30.2
00:10 1019 30.09 848 25.04 17.5 63.4 29 -0.8 30.6
00:15 1019 30.09 848 25.04 16.9 62.5 31 -0.2 31.7
00:20 1019 30.09 848 25.04 16.5 61.6 32 -0.4 31.3
00:25 1019 30.09 848 25.04 16.3 61.3 32 -0.5 31.1
00:30 1019 30.09 848 25.04 16.2 61.1 31 -1 30.3
00:35 1019 30.09 848 25.04 16.6 61.8 29 -1.3 29.6
00:40 1019 30.09 848 25.04 17 62.6 26 -2.6 27.3
00:45 1019 30.09 848 25.04 17.6 63.6 27 -1.4 29.4
00:50 1019 30.09 848 25.04 17.9 64.2 26 -1.8 28.7
00:55 1019 30.09 848 25.04 17.8 64 26 -1.7 29
01:00 1019 30.09 848 25.04 17.2 63 29 -0.8 30.6
01:05 1019 30.09 848 25.04 16.4 61.5 31 -0.5 31.1
01:10 1019 30.09 848 25.04 15.9 60.5 32 -0.6 30.9
01:15 1019 30.09 848 25.04 15.7 60.3 30 -1.8 28.8
01:20 1019 30.09 848 25.04 15.9 60.6 30 -1.6 29
01:25 1019 30.09 848 25.04 15.8 60.4 31 -1.3 29.7
01:30 1019 30.09 848 25.04 15.5 59.9 31 -1.3 29.7
01:35 1019 30.09 848 25.04 15.8 60.4 28 -2.5 27.5
01:40 1019 30.09 848 25.04 16.5 61.6 26 -3 26.7
01:45 1019 30.09 848 25.04 17 62.7 25 -3 26.6
01:50 1019 30.09 848 25.04 17.4 63.3 25 -2.6 27.3
01:55 1019 30.09 848 25.04 17.4 63.4 26 -2.3 27.9
02:00 1019 30.09 848 25.04 17 62.6 28 -1.7 28.9
02:05 1019 30.09 848 25.04 16.3 61.3 30 -1.3 29.7
02:10 1019 30.09 848 25.04 15.4 59.8 34 -0.2 31.7
02:15 1019 30.09 848 25.04 14.8 58.6 33 -1.1 30
02:20 1019 30.09 848 25.04 15.1 59.1 31 -2 28.4
02:25 1019 30.09 848 25.04 15.7 60.3 29 -2.4 27.7
02:30 1019 30.09 848 25.04 16 60.7 30 -1.6 29.2
02:35 1019 30.09 848 25.04 15.3 59.5 31 -1.6 29.1
02:40 1019 30.09 848 25.04 15.3 59.5 31 -1.5 29.3
02:45 1019 30.09 848 25.04 15.5 59.9 30 -1.8 28.7
02:50 1019 30.09 848 25.04 15.7 60.2 30 -1.7 28.9
02:55 1019 30.09 848 25.04 15.5 59.8 31 -1.3 29.7
03:00 1019 30.09 848 25.04 14.9 58.9 33 -1.3 29.7
03:05 1019 30.09 848 25.04 14.7 58.4 33 -1.5 29.3
03:10 1019 30.09 848 25.04 14.9 58.9 31 -2 28.4
03:15 1019 30.09 848 25.04 15.5 59.8 30 -2 28.3
03:20 1019 30.09 848 25.04 15.7 60.2 30 -1.8 28.7
03:25 1019 30.09 848 25.04 15.7 60.3 30 -1.8 28.7
03:30 1019 30.09 848 25.04 15.5 60 30 -2 28.4
03:35 1019 30.09 848 25.04 15.4 59.6 31 -1.5 29.2
03:40 1019 30.09 848 25.04 15 59.1 33 -1 30.1
03:45 1019 30.09 848 25.04 14.8 58.6 32 -1.8 28.7
03:50 1019 30.09 848 25.04 15.3 59.5 31 -1.5 29.3
03:55 1019 30.09 848 25.04 15 59 32 -1.4 29.4
04:00 1019 30.09 848 25.04 14.8 58.7 32 -1.4 29.4
04:05 1019 30.09 848 25.04 14.7 58.4 33 -1.3 29.7
04:10 1019 30.09 848 25.04 14.4 57.9 35 -0.9 30.4
04:15 1019 30.09 848 25.04 14.2 57.5 33 -1.6 29
04:20 1019 30.09 848 25.04 14.2 57.6 33 -1.8 28.7
04:25 1019 30.09 848 25.04 14.8 58.6 32 -1.6 29.2
04:30 1019 30.09 848 25.04 14.8 58.6 32 -1.6 29
04:35 1019 30.09 848 25.04 14.7 58.5 32 -1.7 29
04:40 1019 30.09 848 25.04 15 58.9 32 -1.7 28.9
04:45 1019 30.09 848 25.04 14.8 58.6 34 -0.9 30.4
04:50 1019 30.09 848 25.04 14.2 57.6 34 -1.2 29.9
04:55 1019 30.09 848 25.04 14.3 57.7 33 -1.5 29.2
05:00 1019 30.09 848 25.04 14.5 58.1 33 -1.7 29
05:05 1019 30.09 848 25.04 14.8 58.7 31 -2 28.3
05:10 1019 30.09 848 25.04 15 59.1 32 -1.5 29.2
05:15 1019 30.09 848 25.04 15.1 59.1 31 -1.7 28.9
05:20 1019 30.09 848 25.04 15.4 59.8 30 -1.9 28.7
05:25 1019 30.09 848 25.04 15.6 60.1 31 -1.3 29.7
05:30 1019 30.09 848 25.04 15.3 59.6 32 -1.3 29.6
05:35 1019 30.09 848 25.04 15.3 59.5 33 -1 30.3
05:40 1019 30.09 848 25.04 14.8 58.7 35 -0.4 31.2
05:45 1019 30.09 848 25.04 14.3 57.7 34 -1.3 29.6
05:50 1019 30.09 848 25.04 14.5 58.1 33 -1.5 29.2
05:55 1019 30.09 848 25.04 14.7 58.5 33 -1.5 29.3
06:00 1019 30.09 848 25.04 14.8 58.6 33 -1.4 29.4
06:05 1019 30.09 848 25.04 14.8 58.6 33 -1.4 29.5
06:10 1019 30.09 848 25.04 14.8 58.7 31 -2.3 27.9
06:15 1019 30.09 848 25.04 15 58.9 33 -1.2 29.8
06:20 1019 30.09 848 25.04 14.4 58 33 -1.4 29.5
06:25 1019 30.09 848 25.04 14.3 57.7 32 -2 28.4
06:30 1019 30.09 848 25.04 14.7 58.5 31 -2.3 27.8
06:35 1019 30.09 848 25.04 15.2 59.3 30 -2.1 28.2
06:40 1019 30.09 849 25.07 15.1 59.2 31 -1.6 29.1
06:45 1019 30.09 849 25.07 14.8 58.7 31 -2.3 27.9
06:50 1019 30.09 849 25.07 14.9 58.8 33 -1 30.2
06:55 1019 30.09 849 25.07 14.2 57.6 34 -1.2 29.9
07:00 1019 30.09 849 25.07 14 57.1 35 -1 30.2
07:05 1019 30.09 849 25.07 13.6 56.5 37 -0.6 30.9
07:10 1020 30.12 849 25.07 13.5 56.2 37 -0.9 30.4
07:15 1020 30.12 849 25.07 13.7 56.7 33 -2 28.4
07:20 1020 30.12 849 25.07 14.3 57.7 35 -0.8 30.5
07:25 1020 30.12 849 25.07 13.9 57.1 37 -0.3 31.5
07:30 1020 30.12 849 25.07 14 57.1 37 -0.5 31.1
07:35 1020 30.12 849 25.07 14.1 57.4 36 -0.5 31.1
07:40 1020 30.12 849 25.07 14.4 57.9 35 -0.9 30.4
07:45 1020 30.12 849 25.07 14.5 58.1 37 0 32.1
07:50 1020 30.12 849 25.07 14.4 57.9 39 0.6 33
07:55 1020 30.12 849 25.07 14.1 57.4 40 0.7 33.3
08:00 1020 30.12 849 25.07 14 57.2 42 1.5 34.7
08:05 1020 30.12 849 25.07 14 57.2 43 1.9 35.3
08:10 1020 30.12 849 25.07 14 57.2 44 1.9 35.5
08:15 1020 30.12 849 25.07 14.2 57.6 43 1.9 35.5
08:20 1020 30.12 849 25.07 14.5 58.2 42 1.9 35.3
08:25 1020 30.12 849 25.07 14.9 58.7 42 2.2 36
08:30 1020 30.12 849 25.07 15.2 59.4 40 2 35.6
08:35 1020 30.12 849 25.07 15.7 60.3 39 1.9 35.4
08:40 1020 30.12 849 25.07 16.5 61.8 39 2.6 36.7
08:45 1020 30.12 849 25.07 17 62.5 37 2.2 36
08:50 1020 30.12 849 25.07 17.3 63.2 36 2.1 35.7
08:55 1020 30.12 849 25.07 17.9 64.3 38 3.6 38.5
09:00 1020 30.12 849 25.07 18 64.3 40 4.4 39.9
09:05 1020 30.12 849 25.07 18 64.5 40 4.5 40
09:10 1020 30.12 849 25.07 18 64.3 38 3.5 38.2
09:15 1020 30.12 849 25.07 18.5 65.2 35 2.7 36.9
09:20 1020 30.12 849 25.07 18.8 65.9 34 2.7 36.8
09:25 1020 30.12 849 25.07 18.8 65.8 34 2.7 36.8
09:30 1020 30.12 849 25.07 18.9 66 33 2.3 36.2
09:35 1020 30.12 849 25.07 19.2 66.6 34 3 37.3
09:40 1020 30.12 849 25.07 19.9 67.8 32 3 37.4
09:45 1020 30.12 849 25.07 20.3 68.5 32 3.1 37.7
09:50 1020 30.12 849 25.07 20.6 69.1 32 3.4 38.1
09:55 1020 30.12 849 25.07 20.9 69.5 31 3.3 38
10:00 1020 30.12 849 25.07 20.8 69.4 30 2.7 36.9
10:05 1020 30.12 849 25.07 21 69.8 26 1.1 34
10:10 1020 30.12 849 25.07 21.4 70.4 27 1.8 35.2
10:15 1020 30.12 849 25.07 21.7 71.1 25 1.3 34.3
10:20 1020 30.12 849 25.07 21.9 71.4 24 0.6 33
10:25 1020 30.12 849 25.07 21.7 71 24 0.5 32.9
10:30 1020 30.12 849 25.07 22.3 72.2 23 0.4 32.8
10:35 1020 30.12 849 25.07 23 73.5 22 0.4 32.8
10:40 1020 30.12 849 25.07 23.6 74.5 21 0.5 33
10:45 1020 30.12 849 25.07 23 73.4 21 -0.5 31.1
10:50 1020 30.12 849 25.07 22.5 72.5 22 -0.2 31.7
10:55 1020 30.12 849 25.07 22.9 73.1 21 -0.3 31.5
11:00 1020 30.12 849 25.07 23.5 74.2 21 0.1 32.2
11:05 1020 30.12 849 25.07 23.6 74.6 20 -0.7 30.7
11:10 1020 30.12 849 25.07 23.2 73.7 19 -1.8 28.8
11:15 1020 30.12 849 25.07 24 75.1 19 -0.9 30.4
11:20 1019 30.09 849 25.07 24.4 75.9 18 -1 30.1
11:25 1019 30.09 849 25.07 24.6 76.3 20 0.1 32.2
11:30 1019 30.09 849 25.07 24.9 76.8 19 -0.1 31.9
11:35 1019 30.09 849 25.07 25.1 77.1 19 0.1 32.1
11:40 1019 30.09 849 25.07 24.4 76 19 -0.4 31.3
11:45 1019 30.09 849 25.07 24 75.2 19 -0.6 31
11:50 1019 30.09 849 25.07 24.7 76.5 18 -0.9 30.4
11:55 1019 30.09 848 25.04 25.2 77.4 16 -2.5 27.5
12:00 1019 30.09 848 25.04 25.1 77.1 17 -1.5 29.3
12:05 1019 30.09 848 25.04 24.7 76.4 17 -1.5 29.3
12:10 1019 30.09 848 25.04 24.5 76.1 18 -0.9 30.3
12:15 1019 30.09 848 25.04 24.8 76.7 18 -0.7 30.7
12:20 1019 30.09 848 25.04 25.3 77.5 15 -2.6 27.3
12:25 1019 30.09 848 25.04 25 77 16 -2.6 27.4
12:30 1019 30.09 848 25.04 24.2 75.6 17 -2 28.4
12:35 1019 30.09 848 25.04 24.2 75.6 17 -2.3 27.8
12:40 1019 30.09 848 25.04 24.4 75.9 16 -3.2 26.2
12:45 1019 30.09 848 25.04 25.1 77.3 16 -2.5 27.5
12:50 1019 30.09 848 25.04 26 78.8 14 -3.4 25.8
12:55 1019 30.09 848 25.04 26.5 79.6 14 -2.9 26.8
13:00 1019 30.09 848 25.04 26.1 79 15 -2.7 27.2
13:05 1019 30.09 848 25.04 26 78.8 15 -2.8 27
13:10 1019 30.09 848 25.04 25.9 78.6 17 -1.1 30
13:15 1018 30.06 848 25.04 25.2 77.4 15 -3 26.7
13:20 1018 30.06 848 25.04 24.4 75.9 15 -3.3 26
13:25 1018 30.06 848 25.04 24.5 76.1 17 -1.9 28.6
13:30 1018 30.06 848 25.04 25.2 77.4 15 -2.6 27.3
13:35 1018 30.06 848 25.04 25.2 77.3 18 -0.3 31.4
13:40 1018 30.06 848 25.04 25.3 77.5 15 -2.9 26.7
13:45 1018 30.06 847 25.01 25.9 78.6 15 -2.4 27.6
13:50 1018 30.06 847 25.01 26.1 78.9 17 -0.5 31
13:55 1018 30.06 847 25.01 26 78.8 16 -1.8 28.8
14:00 1018 30.06 847 25.01 25.6 78.2 17 -0.8 30.6
14:05 1018 30.06 847 25.01 25.7 78.3 18 -0.2 31.6
14:10 1018 30.06 847 25.01 25.2 77.4 17 -0.9 30.3
14:15 1018 30.06 847 25.01 24.8 76.6 19 -0 31.9
14:20 1018 30.06 847 25.01 25.5 77.9 17 -1.4 29.6
14:25 1018 30.06 847 25.01 25.6 78.1 17 -1.1 30
14:30 1018 30.06 847 25.01 26.4 79.5 17 -0.2 31.6
14:35 1018 30.06 847 25.01 27.5 81.5 15 -1.5 29.4
14:40 1018 30.06 847 25.01 27.6 81.8 14 -1.6 29.1
14:45 1018 30.06 847 25.01 27.4 81.3 14 -1.7 29
14:50 1018 30.06 847 25.01 26.4 79.4 15 -1.8 28.8
14:55 1018 30.06 847 25.01 26.2 79.1 15 -1.9 28.5
15:00 1018 30.06 847 25.01 27.2 81 14 -1.9 28.5
15:05 1017 30.03 847 25.01 27.1 80.7 17 0.2 32.4
15:10 1017 30.03 847 25.01 27.2 81 16 -0.8 30.6
15:15 1017 30.03 847 25.01 27.7 81.9 14 -1.5 29.2
15:20 1017 30.03 847 25.01 26.9 80.5 14 -2.2 28
15:25 1017 30.03 846 24.98 27.4 81.3 15 -1.7 29
15:30 1017 30.03 846 24.98 27.9 82.2 14 -1.7 28.9
15:35 1017 30.03 846 24.98 28.2 82.8 14 -1.1 30
15:40 1017 30.03 846 24.98 28.4 83.2 13 -1.8 28.7
15:45 1017 30.03 846 24.98 27.7 81.8 14 -2 28.3
15:50 1017 30.03 846 24.98 27.6 81.7 15 -1 30.2
15:55 1017 30.03 846 24.98 27.9 82.1 14 -1.7 28.9
16:00 1017 30.03 846 24.98 27.8 82 15 -1.3 29.6
16:05 1017 30.03 846 24.98 28 82.4 14 -1.4 29.5
16:10 1017 30.03 846 24.98 27.9 82.1 14 -1.7 28.9
16:15 1017 30.03 846 24.98 28.3 82.9 14 -1.4 29.5
16:20 1017 30.03 846 24.98 27.8 82.1 14 -1.7 28.9
16:25 1017 30.03 846 24.98 27.7 81.8 15 -1.2 29.9
16:30 1017 30.03 846 24.98 27.7 81.8 14 -1.5 29.3
16:35 1017 30.03 846 24.98 27.7 81.9 14 -2 28.4
16:40 1017 30.03 846 24.98 27.5 81.5 13 -3 26.7
16:45 1017 30.03 846 24.98 27.8 82 14 -2.1 28.2
16:50 1017 30.03 846 24.98 28.1 82.7 14 -1.8 28.8
16:55 1017 30.03 846 24.98 28.1 82.6 14 -1.7 29
17:00 1017 30.03 846 24.98 28.2 82.7 15 -0.6 31
17:05 1017 30.03 846 24.98 28 82.3 14 -2.1 28.1
17:10 1017 30.03 846 24.98 28.1 82.7 14 -1.9 28.6
17:15 1017 30.03 846 24.98 28.4 83.1 14 -1.8 28.8
17:20 1017 30.03 846 24.98 28.3 82.9 14 -1.9 28.6
17:25 1017 30.03 846 24.98 27.7 81.8 14 -2.1 28.3
17:30 1017 30.03 846 24.98 27.1 80.8 14 -2.2 28
17:35 1017 30.03 846 24.98 26.5 79.7 15 -2 28.4
17:40 1017 30.03 846 24.98 26.6 80 14 -2.4 27.7
17:45 1017 30.03 846 24.98 27 80.6 15 -2 28.4
17:50 1016 30 846 24.98 27.3 81.1 14 -2.2 28
17:55 1017 30.03 846 24.98 27.5 81.5 14 -1.8 28.8
18:00 1017 30.03 846 24.98 27.7 81.9 14 -2.1 28.2
18:05 1017 30.03 846 24.98 27.7 81.8 14 -2.4 27.8
18:10 1017 30.03 846 24.98 27.6 81.6 14 -2.2 28.1
18:15 1017 30.03 846 24.98 27.5 81.5 14 -2.4 27.7
18:20 1017 30.03 846 24.98 27.4 81.4 14 -2.3 27.8
18:25 1017 30.03 846 24.98 27.3 81.1 15 -1.1 30
18:30 1017 30.03 846 24.98 27.1 80.8 15 -1.3 29.7
18:35 1017 30.03 846 24.98 26.9 80.5 14 -2.2 28.1
18:40 1017 30.03 846 24.98 26.9 80.4 14 -2.2 28
18:45 1017 30.03 846 24.98 26.8 80.2 16 -1.2 29.8
18:50 1017 30.03 846 24.98 26.5 79.7 15 -2 28.4
18:55 1017 30.03 846 24.98 26.3 79.4 17 -0.1 31.7
19:00 1017 30.03 846 24.98 26.2 79.1 19 0.7 33.2
19:05 1017 30.03 846 24.98 26 78.7 17 -0.6 31
19:10 1017 30.03 846 24.98 25.8 78.5 17 -0.6 30.9
19:15 1017 30.03 846 24.98 25.7 78.2 18 -0.2 31.7
19:20 1017 30.03 846 24.98 25.6 78.1 18 0.1 32.1
19:25 1017 30.03 846 24.98 25.6 78 18 0.1 32.2
19:30 1017 30.03 846 24.98 25.5 77.8 20 1 33.8
19:35 1017 30.03 846 24.98 25.3 77.6 23 2.7 36.9
19:40 1017 30.03 846 24.98 24.7 76.5 23 2.6 36.7
19:45 1017 30.03 846 24.98 24.4 76 22 1.4 34.5
19:50 1017 30.03 846 24.98 24.2 75.6 20 -0.1 31.8
19:55 1017 30.03 846 24.98 24 75.3 18 -1.2 29.8
20:00 1017 30.03 846 24.98 23.9 75 18 -1.7 29
20:05 1017 30.03 846 24.98 23.8 74.8 18 -1.7 28.9
20:10 1017 30.03 846 24.98 23.5 74.4 19 -1.4 29.4
20:15 1017 30.03 846 24.98 23.3 74 18 -2.1 28.2
20:20 1017 30.03 847 25.01 23.1 73.6 18 -2.1 28.3
20:25 1017 30.03 847 25.01 23 73.4 19 -1.8 28.8
20:30 1018 30.06 847 25.01 22.8 73.1 19 -2 28.4
20:35 1018 30.06 847 25.01 22.6 72.7 19 -2.1 28.2
20:40 1018 30.06 847 25.01 22.4 72.4 20 -1.5 29.2
20:45 1018 30.06 847 25.01 22 71.5 22 -0.4 31.4
20:50 1018 30.06 847 25.01 21.3 70.4 22 -0.8 30.5
20:55 1018 30.06 847 25.01 21.2 70.1 23 -0.8 30.5
21:00 1018 30.06 848 25.04 21.1 69.9 23 -0.6 30.8
21:05 1018 30.06 848 25.04 20.8 69.4 27 1.2 34.2
21:10 1019 30.09 848 25.04 20.2 68.3 26 0.1 32.2
21:15 1019 30.09 848 25.04 20.3 68.5 26 0.3 32.6
21:20 1019 30.09 848 25.04 20.3 68.5 27 0.7 33.2
21:25 1019 30.09 848 25.04 20.1 68.2 27 0.5 32.9
21:30 1019 30.09 848 25.04 20.2 68.4 26 0.1 32.1
21:35 1019 30.09 848 25.04 20.4 68.7 24 -0.7 30.8
21:40 1019 30.09 848 25.04 20.8 69.4 23 -0.7 30.7
21:45 1019 30.09 848 25.04 21 69.8 23 -1 30.2
21:50 1019 30.09 848 25.04 21.2 70.1 22 -0.9 30.3
21:55 1019 30.09 849 25.07 21.3 70.3 22 -0.9 30.4
22:00 1019 30.09 849 25.07 21.2 70.2 23 -0.6 30.9
22:05 1019 30.09 849 25.07 20.9 69.6 24 -0.2 31.6
22:10 1019 30.09 849 25.07 20.7 69.2 24 -0.4 31.3
22:15 1019 30.09 849 25.07 20.7 69.2 24 -0.5 31.1
22:20 1019 30.09 849 25.07 20.8 69.4 24 -0.5 31
22:25 1019 30.09 849 25.07 20.8 69.4 24 -0.2 31.6
22:30 1020 30.12 849 25.07 20.7 69.2 25 -0 32
22:35 1020 30.12 849 25.07 20.5 68.9 26 0.8 33.4
22:40 1020 30.12 849 25.07 19.7 67.4 29 1.3 34.3
22:45 1020 30.12 849 25.07 19.3 66.7 28 0.5 32.9
22:50 1020 30.12 849 25.07 19.3 66.8 29 1.2 34.1
22:55 1020 30.12 849 25.07 19 66.1 30 1.1 33.9
23:00 1020 30.12 849 25.07 18.8 65.8 31 1.4 34.5
23:05 1020 30.12 849 25.07 18.5 65.2 32 1.6 34.8
23:10 1020 30.12 849 25.07 18.4 65.1 32 1.6 34.9
23:15 1020 30.12 849 25.07 18.3 64.9 31 1.1 34
23:20 1020 30.12 849 25.07 18.5 65.2 31 1.2 34.2
23:25 1020 30.12 849 25.07 18.6 65.5 31 1.3 34.4
23:30 1020 30.12 849 25.07 18.8 65.9 31 1.4 34.6
23:35 1020 30.12 849 25.07 18.8 65.9 31 1.7 35
23:40 1020 30.12 849 25.07 18.8 65.8 31 1.5 34.8
23:45 1020 30.12 849 25.07 19 66.3 30 1.3 34.3
23:50 1020 30.12 849 25.07 19.2 66.5 30 1.3 34.3
23:55 1020 30.12 849 25.07 19.4 66.9 29 1.2 34.2
24:00 1020 30.12 849 25.07 19.3 66.7 30 1.4 34.6